Time;durP1;ratioP1;P1;durP2;ratioP2;P2;SDS_P1;SDS_P2;PMS_P1;PMS_P2;Temp;Humidity;BMP_temperature;BMP_pressure;BME280_temperature;BME280_humidity;BME280_pressure;Samples;Min_cycle;Max_cycle;Signal;HPM_P1;HPM_P2
2023/07/23 00:02:07;;;;;;;10.40;5.70;;;;;;;16.80;100.00;100867.22;4925230;29;20508;-67
2023/07/23 00:04:33;;;;;;;10.95;6.00;;;;;;;16.88;100.00;100861.03;4928394;29;20155;-65
2023/07/23 00:07:00;;;;;;;10.90;6.57;;;;;;;16.92;100.00;100851.69;4909378;29;20052;-65
2023/07/23 00:09:27;;;;;;;10.60;6.65;;;;;;;16.96;100.00;100860.09;4920980;29;20047;-65
2023/07/23 00:11:53;;;;;;;11.40;6.78;;;;;;;16.88;100.00;100857.56;4902096;29;20059;-65
2023/07/23 00:14:20;;;;;;;10.00;5.82;;;;;;;16.95;100.00;100847.84;4922344;29;20138;-66
2023/07/23 00:16:47;;;;;;;10.05;6.60;;;;;;;16.96;100.00;100842.34;4909426;29;20478;-65
2023/07/23 00:19:19;;;;;;;12.05;5.95;;;;;;;16.93;100.00;100857.81;4924678;29;20058;-65
2023/07/23 00:21:47;;;;;;;9.40;6.05;;;;;;;16.91;100.00;100854.53;4918896;29;20083;-64
2023/07/23 00:24:19;;;;;;;10.27;5.80;;;;;;;16.95;100.00;100838.06;4922269;29;20403;-65
2023/07/23 00:26:46;;;;;;;12.13;6.20;;;;;;;16.99;100.00;100834.03;4923174;29;20118;-66
2023/07/23 00:29:12;;;;;;;14.02;6.47;;;;;;;17.02;100.00;100830.19;4920715;29;20131;-67
2023/07/23 00:31:39;;;;;;;14.65;5.85;;;;;;;17.06;100.00;100825.34;4923439;29;20171;-67
2023/07/23 00:34:06;;;;;;;10.68;6.32;;;;;;;17.05;100.00;100827.16;4927225;28;20726;-65
2023/07/23 00:36:32;;;;;;;10.85;6.18;;;;;;;17.02;100.00;100816.13;4927768;29;20274;-67
2023/07/23 00:38:59;;;;;;;9.55;5.43;;;;;;;17.04;100.00;100820.22;4926292;29;20798;-67
2023/07/23 00:41:25;;;;;;;10.55;5.70;;;;;;;17.06;100.00;100806.78;4914175;29;20433;-67
2023/07/23 00:43:53;;;;;;;9.48;6.35;;;;;;;17.06;100.00;100807.59;4930880;29;20201;-67
2023/07/23 00:46:19;;;;;;;10.93;5.90;;;;;;;17.08;100.00;100800.28;4913558;29;20116;-67
2023/07/23 00:48:46;;;;;;;8.93;5.05;;;;;;;17.11;100.00;100799.06;4913065;29;20238;-67
2023/07/23 00:51:13;;;;;;;8.98;5.75;;;;;;;17.13;100.00;100799.69;4921055;29;20043;-67
2023/07/23 00:53:39;;;;;;;11.48;6.20;;;;;;;17.15;100.00;100798.53;4927370;29;20075;-65
2023/07/23 00:56:06;;;;;;;8.88;5.57;;;;;;;17.16;100.00;100794.03;4924015;29;20685;-67
2023/07/23 00:58:33;;;;;;;10.38;5.30;;;;;;;17.15;100.00;100790.56;4926443;29;20079;-67
2023/07/23 01:01:00;;;;;;;11.75;5.68;;;;;;;17.15;100.00;100779.97;4929304;29;20047;-62
2023/07/23 01:03:27;;;;;;;8.40;5.00;;;;;;;17.17;100.00;100785.91;4914956;29;20473;-61
2023/07/23 01:05:58;;;;;;;14.13;5.93;;;;;;;17.17;100.00;100777.09;4920927;29;20567;-63
2023/07/23 01:08:25;;;;;;;11.73;5.93;;;;;;;17.16;100.00;100773.63;4909356;29;20068;-63
2023/07/23 01:10:52;;;;;;;11.13;5.75;;;;;;;17.15;100.00;100773.81;4910588;29;20075;-63
2023/07/23 01:13:19;;;;;;;8.95;5.22;;;;;;;17.15;100.00;100765.88;4922688;29;20399;-62
2023/07/23 01:15:46;;;;;;;10.25;5.50;;;;;;;17.16;100.00;100754.28;4921674;29;20079;-63
2023/07/23 01:18:13;;;;;;;8.13;4.82;;;;;;;17.12;100.00;100761.78;4921405;29;20111;-61
2023/07/23 01:20:40;;;;;;;9.15;5.45;;;;;;;17.13;100.00;100755.47;4914552;29;20062;-62
2023/07/23 01:23:06;;;;;;;12.43;5.53;;;;;;;17.12;100.00;100745.88;4924985;29;20099;-61
2023/07/23 01:25:33;;;;;;;11.38;5.90;;;;;;;17.12;100.00;100743.22;4924208;29;20505;-62
2023/07/23 01:27:59;;;;;;;9.70;5.28;;;;;;;17.11;100.00;100728.34;4933566;29;20181;-62
2023/07/23 01:30:26;;;;;;;9.98;6.20;;;;;;;17.09;100.00;100729.53;4930995;29;20505;-62
2023/07/23 01:32:53;;;;;;;8.40;5.38;;;;;;;17.12;100.00;100726.53;4923979;29;20051;-62
2023/07/23 01:35:20;;;;;;;11.88;5.05;;;;;;;17.10;100.00;100721.41;4924485;29;20056;-61
2023/07/23 01:37:47;;;;;;;9.15;5.28;;;;;;;17.14;100.00;100725.31;4904695;29;20083;-61
2023/07/23 01:40:15;;;;;;;9.75;5.03;;;;;;;17.14;100.00;100714.72;4911978;29;20051;-61
2023/07/23 01:42:44;;;;;;;10.48;5.85;;;;;;;17.16;100.00;100715.34;4912575;29;20099;-61
2023/07/23 01:45:12;;;;;;;;;;;;;;;17.17;100.00;100711.69;4921666;29;20067;-62
2023/07/23 01:47:38;;;;;;;10.73;5.88;;;;;;;17.12;100.00;100708.78;4912124;29;19926;-61
2023/07/23 01:50:06;;;;;;;10.13;5.93;;;;;;;17.08;100.00;100696.13;4919922;29;20078;-63
2023/07/23 01:52:32;;;;;;;8.60;5.20;;;;;;;17.13;100.00;100704.28;4922825;29;20142;-61
2023/07/23 01:54:59;;;;;;;13.13;6.25;;;;;;;17.14;100.00;100700.66;4923310;29;20062;-62
2023/07/23 01:57:25;;;;;;;12.30;6.10;;;;;;;17.16;100.00;100685.38;4929489;29;20043;-60
2023/07/23 01:59:52;;;;;;;9.02;6.10;;;;;;;17.16;100.00;100694.13;4917623;29;20155;-61
2023/07/23 02:02:18;;;;;;;13.52;7.10;;;;;;;17.20;100.00;100692.72;4920974;29;20106;-62
2023/07/23 02:04:45;;;;;;;9.90;6.75;;;;;;;17.15;100.00;100681.06;4916316;29;20131;-61
2023/07/23 02:07:11;;;;;;;10.00;6.82;;;;;;;17.19;100.00;100685.00;4920762;29;20047;-62
2023/07/23 02:09:38;;;;;;;12.40;7.22;;;;;;;17.15;100.00;100676.59;4920989;29;20052;-63
2023/07/23 02:12:05;;;;;;;12.18;7.50;;;;;;;17.13;100.00;100669.84;4929961;29;20560;-63
2023/07/23 02:14:31;;;;;;;10.55;7.00;;;;;;;17.13;100.00;100660.06;4928873;29;20056;-62
2023/07/23 02:16:57;;;;;;;13.95;8.02;;;;;;;17.15;100.00;100651.91;4913320;28;20087;-64
2023/07/23 02:19:24;;;;;;;11.07;7.75;;;;;;;17.14;100.00;100642.34;4924294;29;20066;-62
2023/07/23 02:21:51;;;;;;;11.80;6.82;;;;;;;17.16;100.00;100642.97;4914911;29;20107;-62
2023/07/23 02:24:17;;;;;;;9.57;6.30;;;;;;;17.16;100.00;100637.66;4925226;29;20139;-62
2023/07/23 02:26:43;;;;;;;13.50;8.00;;;;;;;17.13;100.00;100630.09;4921473;29;20155;-62
2023/07/23 02:29:10;;;;;;;19.10;7.35;;;;;;;17.19;100.00;100634.63;4915233;29;20043;-64
2023/07/23 02:31:37;;;;;;;10.82;7.35;;;;;;;17.17;100.00;100628.69;4923362;29;20364;-62
2023/07/23 02:34:03;;;;;;;13.63;7.30;;;;;;;17.16;100.00;100625.22;4922822;29;20135;-61
2023/07/23 02:36:30;;;;;;;12.73;7.40;;;;;;;17.14;100.00;100621.94;4921059;29;20052;-60
2023/07/23 02:38:57;;;;;;;10.70;7.28;;;;;;;17.11;100.00;100622.34;4913941;29;20139;-61
2023/07/23 02:41:23;;;;;;;12.10;8.02;;;;;;;17.08;100.00;100609.47;4924250;29;20106;-60
2023/07/23 02:43:50;;;;;;;13.73;7.47;;;;;;;17.05;100.00;100606.38;4922146;29;20640;-60
2023/07/23 02:46:16;;;;;;;10.52;6.97;;;;;;;17.05;100.00;100611.69;4920947;29;20052;-62
2023/07/23 02:48:43;;;;;;;12.25;7.15;;;;;;;16.99;100.00;100600.88;4932348;29;20059;-61
2023/07/23 02:51:09;;;;;;;11.10;6.95;;;;;;;17.02;100.00;100601.50;4923639;28;20150;-61
2023/07/23 02:53:36;;;;;;;11.55;6.60;;;;;;;17.02;100.00;100601.50;4916306;29;20048;-61
2023/07/23 02:56:02;;;;;;;10.63;6.28;;;;;;;17.04;100.00;100604.78;4909281;28;20067;-61
2023/07/23 02:58:29;;;;;;;10.30;6.35;;;;;;;17.07;100.00;100599.06;4923394;29;20469;-60
2023/07/23 03:00:55;;;;;;;10.73;6.40;;;;;;;17.04;100.00;100596.81;4925322;29;20102;-60
2023/07/23 03:03:23;;;;;;;11.40;5.97;;;;;;;17.05;100.00;100588.66;4916351;29;20141;-61
2023/07/23 03:05:49;;;;;;;8.55;5.82;;;;;;;17.06;100.00;100592.94;4916196;29;20108;-61
2023/07/23 03:08:16;;;;;;;8.95;5.53;;;;;;;17.07;100.00;100586.66;4923331;29;20084;-61
2023/07/23 03:10:42;;;;;;;11.00;5.88;;;;;;;17.05;100.00;100583.34;4923867;29;20111;-60
2023/07/23 03:13:09;;;;;;;8.80;5.30;;;;;;;17.01;100.00;100579.47;4918970;29;20058;-61
2023/07/23 03:15:35;;;;;;;9.50;5.00;;;;;;;17.03;100.00;100576.63;4928447;29;20138;-62
2023/07/23 03:18:02;;;;;;;9.75;5.03;;;;;;;17.02;100.00;100578.47;4928948;29;20055;-62
2023/07/23 03:20:29;;;;;;;6.97;4.82;;;;;;;17.02;100.00;100565.22;4922224;29;20422;-61
2023/07/23 03:22:55;;;;;;;12.43;5.25;;;;;;;17.03;100.00;100560.72;4923708;29;20052;-62
2023/07/23 03:25:22;;;;;;;6.95;4.78;;;;;;;17.03;100.00;100558.06;4915428;29;21060;-62
2023/07/23 03:27:48;;;;;;;8.52;5.32;;;;;;;17.04;100.00;100570.31;4924222;29;20131;-63
2023/07/23 03:30:15;;;;;;;8.00;5.15;;;;;;;17.04;100.00;100565.84;4913358;29;20147;-63
2023/07/23 03:32:41;;;;;;;10.15;5.03;;;;;;;17.05;100.00;100564.00;4939541;29;20161;-61
2023/07/23 03:35:08;;;;;;;7.60;4.82;;;;;;;17.05;100.00;100564.81;4929587;29;20701;-61
2023/07/23 03:37:34;;;;;;;7.68;4.68;;;;;;;17.06;100.00;100555.03;4921361;29;20099;-63
2023/07/23 03:40:01;;;;;;;8.57;5.15;;;;;;;16.99;100.00;100562.94;4929036;29;20127;-61
2023/07/23 03:42:28;;;;;;;10.40;5.85;;;;;;;16.94;100.00;100555.59;4924876;29;20055;-61
2023/07/23 03:44:54;;;;;;;8.48;4.88;;;;;;;16.95;100.00;100551.91;4929515;29;20227;-62
2023/07/23 03:47:21;;;;;;;11.70;5.15;;;;;;;16.92;100.00;100538.25;4920646;29;20083;-61
2023/07/23 03:49:48;;;;;;;10.25;5.18;;;;;;;16.87;100.00;100541.47;4931587;29;20262;-60
2023/07/23 03:52:15;;;;;;;8.38;5.40;;;;;;;16.86;100.00;100542.50;4935701;29;20099;-62
2023/07/23 03:54:41;;;;;;;11.35;5.10;;;;;;;16.81;100.00;100536.94;4919305;29;20115;-60
2023/07/23 03:57:08;;;;;;;10.43;5.82;;;;;;;16.87;100.00;100545.97;4923565;29;20631;-61
2023/07/23 03:59:36;;;;;;;12.52;5.32;;;;;;;16.88;100.00;100542.31;4925079;29;20760;-61
2023/07/23 04:02:03;;;;;;;8.50;5.00;;;;;;;16.87;100.00;100535.38;4927019;29;20099;-60
2023/07/23 04:04:30;;;;;;;12.38;5.38;;;;;;;16.85;100.00;100538.19;4919445;28;20793;-61
2023/07/23 04:06:56;;;;;;;13.45;5.15;;;;;;;16.85;100.00;100542.69;4921152;29;20052;-61
2023/07/23 04:09:22;;;;;;;9.55;5.00;;;;;;;16.85;100.00;100532.91;4924545;29;20066;-61
2023/07/23 04:11:49;;;;;;;12.05;5.40;;;;;;;16.83;100.00;100532.28;4924403;29;20047;-60
2023/07/23 04:14:16;;;;;;;10.05;5.47;;;;;;;16.85;100.00;100532.09;4925322;29;20119;-61
2023/07/23 04:16:43;;;;;;;10.07;5.03;;;;;;;16.89;100.00;100530.69;4912624;29;20123;-60
2023/07/23 04:19:09;;;;;;;9.02;5.60;;;;;;;16.84;100.00;100523.34;4926767;29;20126;-62
2023/07/23 04:21:36;;;;;;;12.32;4.97;;;;;;;16.88;100.00;100521.94;4927237;29;20063;-63
2023/07/23 04:24:02;;;;;;;11.70;5.10;;;;;;;16.84;100.00;100530.44;4923936;29;20051;-62
2023/07/23 04:26:30;;;;;;;11.27;5.65;;;;;;;16.83;100.00;100526.16;4928067;29;20092;-60
2023/07/23 04:28:57;;;;;;;7.07;5.03;;;;;;;16.80;100.00;100524.72;4916802;29;20646;-60
2023/07/23 04:31:24;;;;;;;8.60;5.15;;;;;;;16.82;100.00;100521.88;4931516;29;20051;-61
2023/07/23 04:33:52;;;;;;;6.80;4.97;;;;;;;16.77;100.00;100530.38;4918627;29;20102;-63
2023/07/23 04:36:18;;;;;;;8.30;5.07;;;;;;;16.78;100.00;100527.53;4921786;29;20063;-61
2023/07/23 04:38:46;;;;;;;8.32;5.32;;;;;;;16.76;100.00;100515.50;4925169;29;20149;-62
2023/07/23 04:41:12;;;;;;;8.13;5.47;;;;;;;16.79;100.00;100525.69;4912626;29;20106;-63
2023/07/23 04:43:40;;;;;;;10.10;5.20;;;;;;;16.78;100.00;100527.53;4931466;29;20047;-64
2023/07/23 04:46:07;;;;;;;8.68;5.00;;;;;;;16.76;100.00;100520.81;4918764;29;20417;-61
2023/07/23 04:48:35;;;;;;;10.52;5.25;;;;;;;16.73;100.00;100535.25;4923954;29;20385;-61
2023/07/23 04:51:04;;;;;;;10.43;5.20;;;;;;;16.77;100.00;100530.38;4910013;29;20056;-61
2023/07/23 04:53:31;;;;;;;12.77;5.47;;;;;;;16.73;100.00;100529.94;4926965;29;20349;-64
2023/07/23 04:55:59;;;;;;;8.45;4.25;;;;;;;16.75;100.00;100527.09;4919397;29;20075;-63
2023/07/23 04:58:26;;;;;;;7.80;5.07;;;;;;;16.75;100.00;100532.41;4924633;29;20071;-61
2023/07/23 05:00:53;;;;;;;13.85;5.22;;;;;;;16.75;100.00;100527.09;4926089;29;20058;-62
2023/07/23 05:03:20;;;;;;;8.50;5.38;;;;;;;16.75;100.00;100514.69;4920284;29;20146;-61
2023/07/23 05:05:51;;;;;;;7.88;5.13;;;;;;;16.75;100.00;100525.28;4930955;29;20064;-61
2023/07/23 05:08:19;;;;;;;7.03;4.63;;;;;;;16.78;100.00;100518.78;4907670;29;20060;-61
2023/07/23 05:10:46;;;;;;;8.20;4.55;;;;;;;16.75;100.00;100519.97;4925469;29;20824;-63
2023/07/23 05:13:13;;;;;;;9.60;4.43;;;;;;;16.84;100.00;100538.38;4928248;29;20107;-61
2023/07/23 05:15:40;;;;;;;10.23;4.10;;;;;;;16.83;100.00;100523.53;4910699;29;20055;-62
2023/07/23 05:18:07;;;;;;;7.35;4.35;;;;;;;16.87;100.00;100530.88;4925957;29;20493;-62
2023/07/23 05:20:33;;;;;;;8.60;4.60;;;;;;;16.82;100.00;100522.72;4923191;28;20048;-61
2023/07/23 05:23:00;;;;;;;9.57;4.35;;;;;;;16.86;100.00;100529.25;4914580;29;20056;-61
2023/07/23 05:25:26;;;;;;;9.20;4.25;;;;;;;16.89;100.00;100528.84;4918461;29;20138;-63
2023/07/23 05:27:53;;;;;;;10.15;4.32;;;;;;;16.93;100.00;100523.97;4917392;29;20076;-62
2023/07/23 05:30:20;;;;;;;7.18;3.90;;;;;;;16.97;100.00;100530.53;4919245;28;20055;-63
2023/07/23 05:32:46;;;;;;;7.00;3.70;;;;;;;16.94;100.00;100521.16;4927845;29;20055;-63
2023/07/23 05:35:13;;;;;;;9.00;4.85;;;;;;;16.90;100.00;100519.91;4924151;29;20075;-61
2023/07/23 05:37:39;;;;;;;6.72;4.18;;;;;;;16.96;100.00;100527.06;4922689;29;20059;-63
2023/07/23 05:40:07;;;;;;;10.20;4.30;;;;;;;16.94;100.00;100523.78;4925721;29;20574;-62
2023/07/23 05:42:33;;;;;;;10.70;4.50;;;;;;;16.92;100.00;100525.81;4920089;29;20399;-61
2023/07/23 05:44:59;;;;;;;7.78;4.38;;;;;;;16.93;100.00;100523.97;4918379;29;20048;-61
2023/07/23 05:47:26;;;;;;;7.88;4.20;;;;;;;16.95;100.00;100520.13;4926593;29;20079;-62
2023/07/23 05:49:52;;;;;;;12.13;4.18;;;;;;;16.92;100.00;100528.47;4916532;29;20052;-61
2023/07/23 05:52:19;;;;;;;8.93;4.20;;;;;;;16.96;100.00;100526.25;4926828;29;20047;-61
2023/07/23 05:54:48;;;;;;;8.48;4.10;;;;;;;16.95;100.00;100524.59;4917374;28;20074;-61
2023/07/23 05:57:15;;;;;;;6.95;3.55;;;;;;;16.93;100.00;100531.94;4921866;29;20074;-61
2023/07/23 05:59:41;;;;;;;10.32;4.07;;;;;;;16.88;100.00;100532.53;4919316;29;20142;-62
2023/07/23 06:02:08;;;;;;;9.80;4.40;;;;;;;16.80;100.00;100530.00;4924936;29;20286;-62
2023/07/23 06:04:36;;;;;;;7.80;3.88;;;;;;;16.82;100.00;100527.16;4928767;29;20086;-61
2023/07/23 06:07:03;;;;;;;9.03;4.23;;;;;;;16.80;100.00;100527.34;4926457;29;20694;-62
2023/07/23 06:09:29;;;;;;;6.38;4.47;;;;;;;16.82;100.00;100533.31;4926081;29;20988;-61
2023/07/23 06:11:55;;;;;;;8.27;4.32;;;;;;;16.80;100.00;100525.53;4917784;29;20060;-63
2023/07/23 06:14:22;;;;;;;7.75;4.00;;;;;;;16.80;100.00;100525.53;4920715;29;20115;-62
2023/07/23 06:16:48;;;;;;;9.70;3.88;;;;;;;16.80;100.00;100522.06;4924066;28;20083;-63
2023/07/23 06:19:15;;;;;;;9.52;4.47;;;;;;;16.76;100.00;100521.63;4908894;29;20102;-62
2023/07/23 06:21:42;;;;;;;9.60;4.15;;;;;;;16.78;100.00;100522.25;4918401;28;20098;-64
2023/07/23 06:24:09;;;;;;;9.07;4.00;;;;;;;16.76;100.00;100513.69;4926927;29;20485;-62
2023/07/23 06:26:35;;;;;;;10.48;4.20;;;;;;;16.72;100.00;100533.63;4920796;29;20110;-62
2023/07/23 06:29:02;;;;;;;8.15;4.20;;;;;;;16.73;100.00;100522.00;4909291;29;20138;-61
2023/07/23 06:31:29;;;;;;;7.78;4.68;;;;;;;16.72;100.00;100523.03;4922518;29;20143;-62
2023/07/23 06:33:56;;;;;;;7.18;3.97;;;;;;;16.70;100.00;100526.88;4922313;29;20060;-62
2023/07/23 06:36:22;;;;;;;10.30;5.20;;;;;;;16.64;100.00;100525.00;4925413;29;20071;-61
2023/07/23 06:38:49;;;;;;;8.25;4.45;;;;;;;16.67;100.00;100530.72;4906970;29;20835;-62
2023/07/23 06:41:15;;;;;;;10.77;4.05;;;;;;;16.69;100.00;100536.63;4922550;29;20457;-61
2023/07/23 06:43:45;;;;;;;10.60;4.72;;;;;;;16.72;100.00;100530.97;4923573;29;20058;-62
2023/07/23 06:46:17;;;;;;;7.60;4.35;;;;;;;16.67;100.00;100532.56;4925789;29;20056;-62
2023/07/23 06:48:43;;;;;;;8.23;4.53;;;;;;;16.71;100.00;100539.09;4924108;29;20074;-61
2023/07/23 06:51:10;;;;;;;11.05;4.10;;;;;;;16.64;100.00;100540.88;4921320;28;20043;-63
2023/07/23 06:53:36;;;;;;;6.05;3.92;;;;;;;16.58;100.00;100547.75;4920101;29;20056;-62
2023/07/23 06:56:06;;;;;;;7.20;3.80;;;;;;;16.54;100.00;100544.72;4897488;29;20051;-61
2023/07/23 06:58:35;;;;;;;9.68;4.82;;;;;;;16.51;100.00;100545.06;4909042;29;20116;-62
2023/07/23 07:01:01;;;;;;;6.15;3.80;;;;;;;16.55;100.00;100551.63;4917589;29;20063;-60
2023/07/23 07:03:28;;;;;;;6.03;4.00;;;;;;;16.41;100.00;100547.25;4918711;29;20445;-60
2023/07/23 07:05:55;;;;;;;7.05;4.53;;;;;;;16.40;100.00;100556.19;4917342;29;20048;-60
2023/07/23 07:08:22;;;;;;;7.35;4.10;;;;;;;16.37;100.00;100557.38;4902019;29;20094;-61
2023/07/23 07:10:49;;;;;;;6.70;3.90;;;;;;;16.27;100.00;100566.66;4927588;29;20850;-60
2023/07/23 07:13:16;;;;;;;9.35;4.35;;;;;;;16.20;100.00;100567.41;4915786;29;20067;-61
2023/07/23 07:15:43;;;;;;;6.80;4.32;;;;;;;16.19;100.00;100562.31;4915597;29;20051;-60
2023/07/23 07:18:09;;;;;;;9.02;4.72;;;;;;;16.09;100.00;100562.63;4931235;29;20429;-60
2023/07/23 07:20:36;;;;;;;14.20;4.45;;;;;;;16.09;100.00;100562.63;4920580;29;20071;-61
2023/07/23 07:23:02;;;;;;;10.50;4.78;;;;;;;16.01;100.00;100554.81;4925272;29;20158;-61
2023/07/23 07:25:29;;;;;;;9.13;4.32;;;;;;;16.09;100.00;100567.09;4918532;29;20699;-63
2023/07/23 07:27:55;;;;;;;10.07;4.57;;;;;;;16.02;100.00;100567.84;4923554;29;20051;-61
2023/07/23 07:30:22;;;;;;;10.82;4.68;;;;;;;15.95;100.00;100571.44;4923743;29;20135;-62
2023/07/23 07:32:48;;;;;;;10.35;5.22;;;;;;;15.95;100.00;100566.94;4931499;29;20063;-63
2023/07/23 07:35:14;;;;;;;9.43;4.72;;;;;;;15.77;100.00;100577.16;4923082;29;20149;-61
2023/07/23 07:37:41;;;;;;;9.90;5.22;;;;;;;15.59;100.00;100562.47;4908975;29;20367;-62
2023/07/23 07:40:10;;;;;;;11.57;5.47;;;;;;;15.48;100.00;100575.34;4917568;29;20407;-62
2023/07/23 07:42:37;;;;;;;8.60;5.13;;;;;;;15.35;100.00;100568.91;4922338;29;20197;-62
2023/07/23 07:45:04;;;;;;;7.47;4.90;;;;;;;15.39;100.00;100577.28;4918412;29;20055;-61
2023/07/23 07:47:30;;;;;;;9.88;4.85;;;;;;;15.47;100.00;100566.59;4919671;29;20115;-61
2023/07/23 07:49:57;;;;;;;6.97;4.70;;;;;;;15.43;100.00;100565.34;4916004;29;20063;-64
2023/07/23 07:52:23;;;;;;;9.48;4.47;;;;;;;15.39;100.00;100564.06;4920520;29;20584;-62
2023/07/23 07:54:50;;;;;;;12.05;5.25;;;;;;;15.37;100.00;100566.06;4930207;29;20073;-62
2023/07/23 07:57:17;;;;;;;8.10;4.68;;;;;;;15.32;100.00;100574.53;4917793;29;20052;-63
2023/07/23 07:59:43;;;;;;;9.52;4.97;;;;;;;15.32;100.00;100561.31;4911893;29;20100;-61
2023/07/23 08:02:10;;;;;;;9.80;5.30;;;;;;;15.28;100.00;100564.53;4927850;29;20503;-64
2023/07/23 08:04:37;;;;;;;8.38;5.63;;;;;;;15.30;100.00;100571.25;4917070;29;20565;-63
2023/07/23 08:07:05;;;;;;;10.80;5.68;;;;;;;15.34;100.00;100569.88;4935202;29;20062;-63
2023/07/23 08:09:32;;;;;;;12.95;5.10;;;;;;;15.34;100.00;100569.88;4923680;29;20520;-62
2023/07/23 08:11:59;;;;;;;8.13;5.10;;;;;;;15.29;100.00;100571.44;4923968;29;20456;-63
2023/07/23 08:14:26;;;;;;;8.90;5.50;;;;;;;15.33;100.00;100572.75;4925090;29;20055;-60
2023/07/23 08:16:54;;;;;;;7.95;5.10;;;;;;;15.32;100.00;100573.72;4914610;29;20052;-61
2023/07/23 08:19:21;;;;;;;12.07;5.30;;;;;;;15.32;100.00;100574.53;4926060;29;20056;-60
2023/07/23 08:21:48;;;;;;;11.60;5.57;;;;;;;15.40;100.00;100571.78;4934454;28;20143;-60
2023/07/23 08:24:14;;;;;;;10.73;5.40;;;;;;;15.34;100.00;100580.47;4910381;29;20136;-61
2023/07/23 08:26:47;;;;;;;8.63;5.18;;;;;;;15.46;100.00;100567.59;4920290;29;20056;-61
2023/07/23 08:29:16;;;;;;;7.45;4.72;;;;;;;15.39;100.00;100570.16;4923932;29;20524;-63
2023/07/23 08:31:47;;;;;;;8.02;5.07;;;;;;;15.51;100.00;100565.22;4924095;29;20535;-62
2023/07/23 08:34:14;;;;;;;12.77;5.68;;;;;;;15.49;100.00;100564.59;4917338;28;20420;-60
2023/07/23 08:36:41;;;;;;;8.82;5.22;;;;;;;15.51;100.00;100570.50;4930058;29;20047;-60
2023/07/23 08:39:08;;;;;;;8.88;4.97;;;;;;;15.54;100.00;100564.03;4912793;29;20139;-61
2023/07/23 08:42:04;;;;;;;9.55;5.40;;;;;;;15.54;100.00;100561.38;4921185;29;20055;-62
2023/07/23 08:45:33;;;;;;;8.70;5.38;;;;;;;15.56;100.00;100557.56;4904514;29;20481;-61
2023/07/23 08:48:15;;;;;;;9.07;5.32;;;;;;;15.62;100.00;100563.91;4882619;29;20055;-61
2023/07/23 08:50:49;;;;;;;9.32;5.30;;;;;;;15.62;100.00;100571.84;4923747;28;20051;-60
2023/07/23 08:53:17;;;;;;;11.38;6.15;;;;;;;15.67;100.00;100561.53;4929390;29;20055;-60
2023/07/23 08:55:45;;;;;;;;;;;;;;;15.77;100.00;100580.59;4926392;29;20552;-60
2023/07/23 08:58:16;;;;;;;8.52;5.65;;;;;;;15.79;100.00;100569.84;4926916;29;20041;-62
2023/07/23 09:00:45;;;;;;;12.43;5.78;;;;;;;15.80;100.00;100559.09;4904829;29;20720;-61
2023/07/23 09:03:14;;;;;;;9.95;5.68;;;;;;;15.90;100.00;100565.91;4904921;29;20052;-61
2023/07/23 09:05:41;;;;;;;11.93;5.50;;;;;;;15.90;100.00;100565.91;4929408;29;20123;-61
2023/07/23 09:08:07;;;;;;;11.93;6.00;;;;;;;15.97;100.00;100569.41;4922864;29;20056;-62
2023/07/23 09:10:34;;;;;;;11.13;5.72;;;;;;;16.04;100.00;100565.03;4920012;29;20143;-62
2023/07/23 09:13:13;;;;;;;7.40;4.32;;;;;;;16.03;100.00;100550.16;4910891;29;20154;-61
2023/07/23 09:15:41;;;;;;;9.63;5.35;;;;;;;16.09;100.00;100553.88;4923371;29;20070;-63
2023/07/23 09:18:08;;;;;;;9.07;4.93;;;;;;;16.16;100.00;100550.28;4921958;29;20058;-62
2023/07/23 09:20:35;;;;;;;6.43;4.28;;;;;;;16.18;100.00;100558.03;4917847;29;20162;-64
2023/07/23 09:23:06;;;;;;;9.73;3.95;;;;;;;16.25;100.00;100555.44;4924936;29;20429;-62
2023/07/23 09:25:33;;;;;;;8.82;4.13;;;;;;;16.22;100.00;100561.94;4913360;29;20385;-63
2023/07/23 09:27:59;;;;;;;7.13;3.80;;;;;;;16.32;100.00;100554.47;4922061;29;20052;-63
2023/07/23 09:30:27;;;;;;;5.95;3.65;;;;;;;16.29;100.00;100554.88;4913550;29;20106;-62
2023/07/23 09:32:58;;;;;;;7.13;3.88;;;;;;;16.34;100.00;100567.53;4917810;29;20465;-62
2023/07/23 09:35:25;;;;;;;9.98;3.75;;;;;;;16.36;100.00;100562.88;4906721;29;20055;-62
2023/07/23 09:38:00;;;;;;;7.22;4.03;;;;;;;16.40;100.00;100559.63;4918189;29;20048;-62
2023/07/23 09:40:36;;;;;;;6.22;3.80;;;;;;;16.44;100.00;100568.03;4923698;29;20062;-64
2023/07/23 09:43:04;;;;;;;7.70;4.00;;;;;;;16.38;100.00;100574.06;4914431;29;20083;-62
2023/07/23 09:45:34;;;;;;;8.55;4.05;;;;;;;16.44;100.00;100570.66;4924784;29;20084;-62
2023/07/23 09:48:02;;;;;;;7.82;3.80;;;;;;;16.43;100.00;100574.34;4913006;29;20168;-63
2023/07/23 09:50:42;;;;;;;5.30;3.10;;;;;;;16.47;100.00;100565.00;4917197;29;20051;-62
2023/07/23 09:53:09;;;;;;;5.68;3.38;;;;;;;16.45;100.00;100568.88;4921028;29;20059;-63
2023/07/23 09:55:38;;;;;;;5.80;3.40;;;;;;;16.50;100.00;100563.78;4918770;29;20119;-62
2023/07/23 09:58:05;;;;;;;6.00;3.75;;;;;;;16.49;100.00;100570.13;4913048;29;20048;-63
2023/07/23 10:00:33;;;;;;;7.53;3.45;;;;;;;16.48;100.00;100573.75;4916455;29;20087;-61
2023/07/23 10:03:00;;;;;;;6.45;3.22;;;;;;;16.45;100.00;100571.50;4921855;29;20061;-62
2023/07/23 10:05:29;;;;;;;7.50;3.65;;;;;;;16.47;100.00;100566.84;4919125;29;20056;-62
2023/07/23 10:07:57;;;;;;;6.15;3.53;;;;;;;16.59;100.00;100570.59;4920996;29;20099;-62
2023/07/23 10:10:23;;;;;;;5.95;3.78;;;;;;;16.57;100.00;100569.97;4914238;29;20070;-62
2023/07/23 10:12:50;;;;;;;12.07;3.65;;;;;;;16.56;100.00;100592.16;4926533;29;20504;-62
2023/07/23 10:15:20;;;;;;;6.32;3.35;;;;;;;16.58;100.00;100579.53;4933389;29;20059;-62
2023/07/23 10:18:00;;;;;;;4.67;3.07;;;;;;;16.52;100.00;100578.47;4915876;29;20162;-63
2023/07/23 10:20:28;;;;;;;5.03;3.30;;;;;;;16.58;100.00;100577.72;4918911;29;20486;-62
2023/07/23 10:22:55;;;;;;;5.43;3.13;;;;;;;16.48;100.00;100579.06;4912830;29;20051;-62
2023/07/23 10:25:24;;;;;;;3.78;2.90;;;;;;;16.47;100.00;100582.72;4924481;29;20059;-61
2023/07/23 10:27:57;;;;;;;4.10;3.00;;;;;;;16.50;100.00;100579.69;4910610;29;20055;-60
2023/07/23 10:30:24;;;;;;;4.63;3.27;;;;;;;16.48;100.00;100581.69;4927891;29;20065;-61
2023/07/23 10:33:09;;;;;;;4.90;3.17;;;;;;;16.58;100.00;100583.03;4920867;29;20293;-60
2023/07/23 10:35:58;;;;;;;5.25;2.72;;;;;;;16.59;100.00;100584.66;4919941;29;20052;-60
2023/07/23 10:38:32;;;;;;;3.20;2.50;;;;;;;16.59;100.00;100592.59;4913057;28;20060;-60
2023/07/23 10:41:00;;;;;;;3.83;2.47;;;;;;;16.60;100.00;100582.81;4922109;29;20063;-61
2023/07/23 10:43:42;;;;;;;4.82;2.58;;;;;;;16.61;100.00;100585.28;4923393;29;20116;-60
2023/07/23 10:46:13;;;;;;;2.90;2.30;;;;;;;16.49;100.00;100594.75;4916749;28;20059;-62
2023/07/23 10:48:48;;;;;;;5.60;2.70;;;;;;;16.56;100.00;100584.19;4928996;29;20131;-63
2023/07/23 10:51:17;;;;;;;3.63;2.47;;;;;;;16.52;100.00;100593.53;4912475;29;20055;-61
2023/07/23 10:53:58;;;;;;;3.97;2.38;;;;;;;16.45;100.00;100587.38;4912319;29;20238;-63
2023/07/23 10:56:35;;;;;;;3.72;2.15;;;;;;;16.39;100.00;100589.78;4928228;29;20103;-62
2023/07/23 10:59:09;;;;;;;3.35;2.40;;;;;;;16.37;100.00;100580.41;4923234;29;20071;-64
2023/07/23 11:01:40;;;;;;;4.18;2.60;;;;;;;16.36;100.00;100589.34;4911850;29;20062;-62
2023/07/23 11:04:12;;;;;;;4.30;2.58;;;;;;;16.41;100.00;100585.13;4918909;29;20147;-62
2023/07/23 11:06:56;;;;;;;4.20;2.80;;;;;;;16.34;100.00;100597.47;4918068;29;20666;-63
2023/07/23 11:09:28;;;;;;;4.82;2.70;;;;;;;16.23;100.00;100586.56;4921747;29;20134;-61
2023/07/23 11:11:56;;;;;;;6.70;2.90;;;;;;;16.28;100.00;100582.34;4924873;29;20143;-63
2023/07/23 11:14:29;;;;;;;4.37;3.13;;;;;;;16.33;100.00;100592.38;4912288;29;20056;-62
2023/07/23 11:16:58;;;;;;;4.38;2.60;;;;;;;16.27;100.00;100595.75;4915138;29;20059;-64
2023/07/23 11:19:26;;;;;;;5.40;3.08;;;;;;;16.34;100.00;100600.09;4901215;29;20056;-63